createdAt,value
2019-02-12T00:01:06.512Z,0.70
2019-02-12T00:03:34.707Z,0.70
2019-02-12T00:06:02.903Z,0.70
2019-02-12T00:08:31.114Z,0.80
2019-02-12T00:10:59.300Z,0.90
2019-02-12T00:13:27.499Z,0.90
2019-02-12T00:15:55.683Z,0.90
2019-02-12T00:18:23.911Z,0.90
2019-02-12T00:20:52.087Z,0.90
2019-02-12T00:23:20.279Z,0.90
2019-02-12T00:25:48.482Z,0.90
2019-02-12T00:28:16.672Z,0.90
2019-02-12T00:30:44.876Z,1.00
2019-02-12T00:33:13.067Z,1.00
2019-02-12T00:35:41.262Z,1.00
2019-02-12T00:38:09.456Z,0.90
2019-02-12T00:40:37.673Z,0.90
2019-02-12T00:43:05.843Z,0.80
2019-02-12T00:45:34.043Z,0.80
2019-02-12T00:48:02.239Z,0.80
2019-02-12T00:50:30.423Z,0.80
2019-02-12T00:52:58.622Z,0.70
2019-02-12T00:55:26.819Z,0.70
2019-02-12T00:57:55.022Z,0.70
2019-02-12T01:00:23.204Z,0.70
2019-02-12T01:02:51.396Z,0.70
2019-02-12T01:05:19.608Z,0.80
2019-02-12T01:07:47.800Z,0.80
2019-02-12T01:10:16.576Z,0.80
2019-02-12T01:12:44.767Z,0.80
2019-02-12T01:15:13.603Z,0.80
2019-02-12T01:17:41.800Z,0.70
2019-02-12T01:20:12.023Z,0.80
2019-02-12T01:22:40.228Z,0.80
2019-02-12T01:25:08.684Z,0.80
2019-02-12T01:27:36.891Z,0.80
2019-02-12T01:30:11.043Z,0.90
2019-02-12T01:32:39.600Z,0.90
2019-02-12T01:35:07.792Z,0.90
2019-02-12T01:37:35.979Z,0.80
2019-02-12T01:40:04.716Z,0.90
2019-02-12T01:42:32.904Z,0.90
2019-02-12T01:45:01.115Z,1.00
2019-02-12T01:47:29.311Z,1.00
2019-02-12T01:49:57.515Z,1.00
2019-02-12T01:52:25.715Z,0.90
2019-02-12T01:54:53.920Z,0.90
2019-02-12T01:57:22.115Z,0.90
2019-02-12T01:59:50.316Z,1.00
2019-02-12T02:02:18.515Z,1.00
2019-02-12T02:04:46.712Z,1.00
2019-02-12T02:07:14.920Z,1.00
2019-02-12T02:09:43.112Z,1.00
2019-02-12T02:12:11.307Z,1.00
2019-02-12T02:14:39.512Z,1.00
2019-02-12T02:17:07.719Z,1.10
2019-02-12T02:19:35.992Z,1.10
2019-02-12T02:22:04.203Z,1.20
2019-02-12T02:24:32.406Z,1.20
2019-02-12T02:27:00.607Z,1.20
2019-02-12T02:29:28.807Z,1.20
2019-02-12T02:31:57.016Z,1.10
2019-02-12T02:34:25.272Z,1.10
2019-02-12T02:36:53.494Z,1.10
2019-02-12T02:39:21.704Z,1.10
2019-02-12T02:41:49.905Z,1.20
2019-02-12T02:44:18.096Z,1.20
2019-02-12T02:46:46.311Z,1.20
2019-02-12T02:49:14.514Z,1.30
2019-02-12T02:51:42.720Z,1.30
2019-02-12T02:54:10.916Z,1.30
2019-02-12T02:56:39.120Z,1.30
2019-02-12T02:59:07.315Z,1.20
2019-02-12T03:01:35.526Z,1.20
2019-02-12T03:04:03.715Z,1.20
2019-02-12T03:06:31.911Z,1.20
2019-02-12T03:09:00.129Z,1.20
2019-02-12T03:11:28.320Z,1.10
2019-02-12T03:13:56.539Z,1.00
2019-02-12T03:16:24.732Z,1.00
2019-02-12T03:18:52.936Z,0.90
2019-02-12T03:21:21.392Z,0.90
2019-02-12T03:23:49.583Z,0.90
2019-02-12T03:26:17.787Z,0.90
2019-02-12T03:28:45.981Z,0.80
2019-02-12T03:31:14.179Z,0.90
2019-02-12T03:33:42.380Z,0.80
2019-02-12T03:36:10.586Z,0.70
2019-02-12T03:38:38.795Z,0.70
2019-02-12T03:41:06.999Z,0.80
2019-02-12T03:43:35.193Z,0.80
2019-02-12T03:46:03.397Z,0.70
2019-02-12T03:48:31.596Z,0.70
2019-02-12T03:50:59.795Z,0.70
2019-02-12T03:53:28.012Z,0.70
2019-02-12T03:55:56.212Z,0.60
2019-02-12T03:58:24.416Z,0.60
2019-02-12T04:00:52.623Z,0.60
2019-02-12T04:03:20.819Z,0.60
2019-02-12T04:05:49.023Z,0.60
2019-02-12T04:08:17.220Z,0.50
2019-02-12T04:10:45.417Z,0.50
2019-02-12T04:13:13.631Z,0.50
2019-02-12T04:15:41.834Z,0.50
2019-02-12T04:18:10.016Z,0.50
2019-02-12T04:20:38.222Z,0.50
2019-02-12T04:23:06.408Z,0.50
2019-02-12T04:25:34.604Z,0.60
2019-02-12T04:28:02.808Z,0.50
2019-02-12T04:30:31.008Z,0.60
2019-02-12T04:32:59.232Z,0.50
2019-02-12T04:35:27.426Z,0.50
2019-02-12T04:37:55.625Z,0.40
2019-02-12T04:40:23.865Z,0.50
2019-02-12T04:42:52.032Z,0.50
2019-02-12T04:45:20.257Z,0.50
2019-02-12T04:47:48.457Z,0.60
2019-02-12T04:50:16.651Z,0.60
2019-02-12T04:52:44.851Z,0.60
2019-02-12T04:55:13.067Z,0.60
2019-02-12T04:57:41.274Z,0.60
2019-02-12T05:00:12.605Z,0.60
2019-02-12T05:02:40.822Z,0.60
2019-02-12T05:05:10.309Z,0.60
2019-02-12T05:07:38.559Z,0.70
2019-02-12T05:10:09.763Z,0.60
2019-02-12T05:12:37.977Z,0.60
2019-02-12T05:15:08.411Z,0.60
2019-02-12T05:17:36.608Z,0.70
2019-02-12T05:20:08.219Z,0.70
2019-02-12T05:22:43.175Z,0.70
2019-02-12T05:25:07.272Z,0.70
2019-02-12T05:27:35.485Z,0.60
2019-02-12T05:30:06.016Z,0.60
2019-02-12T05:32:34.226Z,0.60
2019-02-12T05:35:02.447Z,0.70
2019-02-12T05:37:30.700Z,0.70
2019-02-12T05:39:59.835Z,0.70
2019-02-12T05:42:28.025Z,0.60
2019-02-12T05:44:56.228Z,0.70
2019-02-12T05:47:24.424Z,0.70
2019-02-12T05:49:52.634Z,0.70
2019-02-12T05:52:20.900Z,0.80
2019-02-12T05:54:49.112Z,0.80
2019-02-12T05:57:17.310Z,0.80
2019-02-12T05:59:47.095Z,0.80
2019-02-12T06:02:15.860Z,0.90
2019-02-12T06:04:44.061Z,0.80
2019-02-12T06:07:12.344Z,0.70
2019-02-12T06:09:40.681Z,0.70
2019-02-12T06:12:08.913Z,0.70
2019-02-12T06:14:37.116Z,0.70
2019-02-12T06:17:05.322Z,0.70
2019-02-12T06:19:33.512Z,0.70
2019-02-12T06:22:01.796Z,0.70
2019-02-12T06:24:30.004Z,0.70
2019-02-12T06:26:58.198Z,0.70
2019-02-12T06:29:26.404Z,0.80
2019-02-12T06:31:54.620Z,0.80
2019-02-12T06:34:22.819Z,0.80
2019-02-12T06:36:51.033Z,0.70
2019-02-12T06:39:19.232Z,0.70
2019-02-12T06:41:47.432Z,0.70
2019-02-12T06:44:15.639Z,0.60
2019-02-12T06:46:43.844Z,0.70
2019-02-12T06:49:12.047Z,0.80
2019-02-12T06:51:40.247Z,0.80
2019-02-12T06:54:08.441Z,0.80
2019-02-12T06:56:36.656Z,0.90
2019-02-12T06:59:04.864Z,0.90
2019-02-12T07:01:33.048Z,1.00
2019-02-12T07:04:01.260Z,1.00
2019-02-12T07:06:41.612Z,1.00
2019-02-12T07:09:30.861Z,1.00
2019-02-12T07:12:05.117Z,1.10
2019-02-12T07:14:42.683Z,1.10
2019-02-12T07:17:41.988Z,1.00
2019-02-12T07:20:37.693Z,1.00
2019-02-12T07:23:29.558Z,1.10
2019-02-12T07:26:12.752Z,1.10
2019-02-12T07:29:02.036Z,1.10
2019-02-12T07:31:49.864Z,1.00
2019-02-12T07:34:33.288Z,1.10
2019-02-12T07:37:28.616Z,1.00
2019-02-12T07:40:17.847Z,1.00
2019-02-12T07:42:58.104Z,1.10
2019-02-12T07:45:53.615Z,1.10
2019-02-12T07:48:58.048Z,1.10
2019-02-12T07:51:49.163Z,1.20
2019-02-12T07:54:35.226Z,1.10
2019-02-12T07:57:09.127Z,1.20
2019-02-12T07:59:43.442Z,1.20
2019-02-12T08:02:35.672Z,1.40
2019-02-12T08:05:47.431Z,1.50
2019-02-12T08:08:41.497Z,1.60
2019-02-12T08:11:15.476Z,1.90
2019-02-12T08:14:12.811Z,2.00
2019-02-12T08:16:47.318Z,2.20
2019-02-12T08:19:30.695Z,2.40
2019-02-12T08:22:17.224Z,2.40
2019-02-12T08:25:00.667Z,2.40
2019-02-12T08:27:52.764Z,2.30
2019-02-12T08:30:53.011Z,2.30
2019-02-12T08:33:43.947Z,2.30
2019-02-12T08:36:18.271Z,2.30
2019-02-12T08:38:52.324Z,2.40
2019-02-12T08:41:29.403Z,2.50
2019-02-12T08:44:00.867Z,2.60
2019-02-12T08:46:58.291Z,2.60
2019-02-12T08:49:47.629Z,2.70
2019-02-12T08:52:42.902Z,2.80
2019-02-12T08:55:32.594Z,2.80
2019-02-12T08:58:09.835Z,2.80
2019-02-12T09:00:44.215Z,2.80
2019-02-12T09:03:32.473Z,2.90
2019-02-12T09:06:45.677Z,2.90
2019-02-12T09:09:31.928Z,3.00
2019-02-12T09:12:12.024Z,3.10
2019-02-12T09:15:01.250Z,3.10
2019-02-12T09:17:32.700Z,3.20
2019-02-12T09:20:31.614Z,3.20
2019-02-12T09:23:28.483Z,3.40
2019-02-12T09:26:02.525Z,3.50
2019-02-12T09:28:39.535Z,3.60
2019-02-12T09:31:33.751Z,3.60
2019-02-12T09:34:25.904Z,3.60
2019-02-12T09:37:03.115Z,3.60
2019-02-12T09:39:43.316Z,3.70
2019-02-12T09:42:40.039Z,3.80
2019-02-12T09:45:37.222Z,3.90
2019-02-12T09:48:29.184Z,3.90
2019-02-12T09:51:06.443Z,4.00
2019-02-12T09:53:43.632Z,4.00
2019-02-12T09:56:40.906Z,4.10
2019-02-12T09:59:27.212Z,4.10
2019-02-12T10:01:58.659Z,4.20
2019-02-12T10:04:32.963Z,4.30
2019-02-12T10:07:04.443Z,4.40
2019-02-12T10:09:47.812Z,4.40
2019-02-12T10:12:33.967Z,4.50
2019-02-12T10:15:08.313Z,4.60
2019-02-12T10:17:42.751Z,4.70
2019-02-12T10:20:17.111Z,4.80
2019-02-12T10:23:14.523Z,4.80
2019-02-12T10:25:43.967Z,4.90
2019-02-12T10:28:31.783Z,5.10
2019-02-12T10:31:06.135Z,5.20
2019-02-12T10:33:34.328Z,5.40
2019-02-12T10:36:02.539Z,5.40
2019-02-12T10:38:30.733Z,5.40
2019-02-12T10:40:58.924Z,5.60
2019-02-12T10:43:27.131Z,5.70
2019-02-12T10:45:55.323Z,5.80
2019-02-12T10:48:23.535Z,5.90
2019-02-12T10:50:51.725Z,6.00
2019-02-12T10:53:19.947Z,6.00
2019-02-12T10:55:48.139Z,6.10
2019-02-12T10:58:16.340Z,6.00
2019-02-12T11:00:44.579Z,6.00
2019-02-12T11:03:12.771Z,6.10
2019-02-12T11:05:40.979Z,6.10
2019-02-12T11:08:09.163Z,6.20
2019-02-12T11:10:37.368Z,6.10
2019-02-12T11:13:05.552Z,5.90
2019-02-12T11:15:33.759Z,5.90
2019-02-12T11:18:01.952Z,5.90
2019-02-12T11:20:30.152Z,6.10
2019-02-12T11:22:58.339Z,6.10
2019-02-12T11:25:26.546Z,6.20
2019-02-12T11:27:54.744Z,6.30
2019-02-12T11:30:22.948Z,6.40
2019-02-12T11:32:51.144Z,6.50
2019-02-12T11:35:19.332Z,6.70
2019-02-12T11:37:47.532Z,6.60
2019-02-12T11:40:15.735Z,6.60
2019-02-12T11:42:43.944Z,6.70
2019-02-12T11:45:13.573Z,6.70
2019-02-12T11:47:42.344Z,6.70
2019-02-12T11:50:10.967Z,6.70
2019-02-12T11:52:39.168Z,6.90
2019-02-12T11:55:10.458Z,7.10
2019-02-12T11:57:38.660Z,7.10
2019-02-12T12:00:13.215Z,7.10
2019-02-12T12:02:42.189Z,7.20
2019-02-12T12:05:10.476Z,7.20
2019-02-12T12:07:38.671Z,7.20
2019-02-12T12:10:11.516Z,7.30
2019-02-12T12:12:39.719Z,7.50
2019-02-12T12:15:10.051Z,7.90
2019-02-12T12:17:38.255Z,8.30
2019-02-12T12:20:12.227Z,8.60
2019-02-12T12:22:40.423Z,8.90
2019-02-12T12:25:10.816Z,9.10
2019-02-12T12:27:39.008Z,9.20
2019-02-12T12:30:10.051Z,9.40
2019-02-12T12:32:38.256Z,10.00
2019-02-12T12:35:08.703Z,11.60
2019-02-12T12:37:36.911Z,12.30
2019-02-12T12:40:08.359Z,12.20
2019-02-12T12:42:36.547Z,12.00
2019-02-12T12:45:10.417Z,12.00
2019-02-12T12:47:38.611Z,12.50
2019-02-12T12:50:09.471Z,13.30
2019-02-12T12:52:37.665Z,14.00
2019-02-12T12:55:07.611Z,14.30
2019-02-12T12:57:41.594Z,14.20
2019-02-12T13:00:11.522Z,14.40
2019-02-12T13:02:39.726Z,14.90
2019-02-12T13:05:08.367Z,15.40
2019-02-12T13:07:36.559Z,15.50
2019-02-12T13:10:10.900Z,15.80
2019-02-12T13:12:39.090Z,16.20
2019-02-12T13:15:09.847Z,16.20
2019-02-12T13:17:38.044Z,16.30
2019-02-12T13:20:09.751Z,15.90
2019-02-12T13:22:37.948Z,15.30
2019-02-12T13:25:08.802Z,14.40
2019-02-12T13:27:37.267Z,14.10
2019-02-12T13:30:09.104Z,14.50
2019-02-12T13:32:37.301Z,14.80
2019-02-12T13:35:06.343Z,14.40
2019-02-12T13:37:34.536Z,13.10
2019-02-12T13:40:03.007Z,12.30
2019-02-12T13:42:31.198Z,11.80
2019-02-12T13:44:59.404Z,11.60
2019-02-12T13:47:27.599Z,11.50
2019-02-12T13:49:56.463Z,11.40
2019-02-12T13:52:24.673Z,11.60
2019-02-12T13:54:52.864Z,12.70
2019-02-12T13:57:21.059Z,13.20
2019-02-12T13:59:49.281Z,13.20
2019-02-12T14:02:17.484Z,13.40
2019-02-12T14:04:45.675Z,13.90
2019-02-12T14:07:13.879Z,14.00
2019-02-12T14:09:42.075Z,14.00
2019-02-12T14:12:10.267Z,14.00
2019-02-12T14:14:38.475Z,13.80
2019-02-12T14:17:06.672Z,13.90
2019-02-12T14:19:34.879Z,13.70
2019-02-12T14:22:03.079Z,13.60
2019-02-12T14:24:31.291Z,13.50
2019-02-12T14:26:59.484Z,13.20
2019-02-12T14:29:27.679Z,13.30
2019-02-12T14:31:55.884Z,13.30
2019-02-12T14:34:24.081Z,13.70
2019-02-12T14:36:52.299Z,13.70
2019-02-12T14:39:20.488Z,13.70
2019-02-12T14:41:48.697Z,13.40
2019-02-12T14:44:16.896Z,13.10
2019-02-12T14:46:45.091Z,13.20
2019-02-12T14:49:13.284Z,13.30
2019-02-12T14:51:41.488Z,13.40
2019-02-12T14:54:09.687Z,12.90
2019-02-12T14:56:38.716Z,12.60
2019-02-12T14:59:06.907Z,12.30
2019-02-12T15:01:35.115Z,12.00
2019-02-12T15:04:03.307Z,11.80
2019-02-12T15:06:31.517Z,11.20
2019-02-12T15:08:59.711Z,10.80
2019-02-12T15:11:27.903Z,10.40
2019-02-12T15:13:56.112Z,10.00
2019-02-12T15:16:24.315Z,9.70
2019-02-12T15:18:52.527Z,9.40
2019-02-12T15:21:20.715Z,9.10
2019-02-12T15:23:48.907Z,8.90
2019-02-12T15:26:17.108Z,8.90
2019-02-12T15:28:45.296Z,9.00
2019-02-12T15:31:13.492Z,9.60
2019-02-12T15:33:41.688Z,9.70
2019-02-12T15:36:09.879Z,9.70
2019-02-12T15:38:38.085Z,9.90
2019-02-12T15:41:06.267Z,9.90
2019-02-12T15:43:34.482Z,9.80
2019-02-12T15:46:02.671Z,9.50
2019-02-12T15:48:30.856Z,9.10
2019-02-12T15:50:59.063Z,8.90
2019-02-12T15:53:27.257Z,8.80
2019-02-12T15:55:55.459Z,8.60
2019-02-12T15:58:23.653Z,8.50
2019-02-12T16:00:51.843Z,8.40
2019-02-12T16:03:21.045Z,8.30
2019-02-12T16:05:49.224Z,8.20
2019-02-12T16:08:17.436Z,8.10
2019-02-12T16:10:45.615Z,7.90
2019-02-12T16:13:13.860Z,7.70
2019-02-12T16:15:43.545Z,7.40
2019-02-12T16:18:11.977Z,7.30
2019-02-12T16:20:40.159Z,7.10
2019-02-12T16:23:08.348Z,7.00
2019-02-12T16:25:36.552Z,6.90
2019-02-12T16:28:07.643Z,6.70
2019-02-12T16:30:35.850Z,6.60
2019-02-12T16:33:04.053Z,6.50
2019-02-12T16:35:32.247Z,6.40
2019-02-12T16:38:00.450Z,6.30
2019-02-12T16:40:28.660Z,6.20
2019-02-12T16:42:56.867Z,6.10
2019-02-12T16:45:28.311Z,6.00
2019-02-12T16:47:56.516Z,5.90
2019-02-12T16:50:24.710Z,5.80
2019-02-12T16:52:52.983Z,5.70
2019-02-12T16:55:21.177Z,5.70
2019-02-12T16:57:49.365Z,5.70
2019-02-12T17:00:18.011Z,5.70
2019-02-12T17:02:46.700Z,5.60
2019-02-12T17:05:15.462Z,5.60
2019-02-12T17:07:44.792Z,5.40
2019-02-12T17:10:13.335Z,5.40
2019-02-12T17:12:41.539Z,5.30
2019-02-12T17:15:11.580Z,5.30
2019-02-12T17:17:39.776Z,5.30
2019-02-12T17:20:16.595Z,5.30
2019-02-12T17:22:44.795Z,5.30
2019-02-12T17:25:13.227Z,5.20
2019-02-12T17:27:41.427Z,5.10
2019-02-12T17:30:14.774Z,5.10
2019-02-12T17:32:43.022Z,5.00
2019-02-12T17:35:11.255Z,5.00
2019-02-12T17:37:58.875Z,5.10
2019-02-12T17:40:27.080Z,5.20
2019-02-12T17:42:55.280Z,5.30
2019-02-12T17:45:23.488Z,5.20
2019-02-12T17:47:51.677Z,5.20
2019-02-12T17:50:19.880Z,5.10
2019-02-12T17:52:48.079Z,5.10
2019-02-12T17:55:16.552Z,5.10
2019-02-12T17:57:44.747Z,5.10
2019-02-12T18:00:22.059Z,5.00
2019-02-12T18:02:50.248Z,5.00
2019-02-12T18:05:18.443Z,5.00
2019-02-12T18:07:46.653Z,4.90
2019-02-12T18:10:14.843Z,4.80
2019-02-12T18:12:43.061Z,4.80
2019-02-12T18:15:12.599Z,4.80
2019-02-12T18:17:40.811Z,4.80
2019-02-12T18:20:11.348Z,4.80
2019-02-12T18:22:39.535Z,4.80
2019-02-12T18:25:09.844Z,4.80
2019-02-12T18:27:38.120Z,4.70
2019-02-12T18:30:09.617Z,4.80
2019-02-12T18:32:37.808Z,4.80
2019-02-12T18:35:07.162Z,4.80
2019-02-12T18:37:35.351Z,4.90
2019-02-12T18:40:08.535Z,5.00
2019-02-12T18:42:36.739Z,4.90
2019-02-12T18:45:08.284Z,4.80
2019-02-12T18:47:36.504Z,4.70
2019-02-12T18:50:07.647Z,4.70
2019-02-12T18:52:35.844Z,4.60
2019-02-12T18:55:05.999Z,4.70
2019-02-12T18:57:34.200Z,4.70
2019-02-12T19:00:02.463Z,4.60
2019-02-12T19:02:30.667Z,4.50
2019-02-12T19:04:58.892Z,4.50
2019-02-12T19:07:27.097Z,4.50
2019-02-12T19:09:55.304Z,4.50
2019-02-12T19:12:23.501Z,4.50
2019-02-12T19:14:51.709Z,4.50
2019-02-12T19:17:19.903Z,4.50
2019-02-12T19:19:48.108Z,4.50
2019-02-12T19:22:16.316Z,4.50
2019-02-12T19:24:44.527Z,4.40
2019-02-12T19:27:12.728Z,4.40
2019-02-12T19:29:40.936Z,4.30
2019-02-12T19:32:09.152Z,4.30
2019-02-12T19:34:37.347Z,4.40
2019-02-12T19:37:05.547Z,4.40
2019-02-12T19:39:33.754Z,4.30
2019-02-12T19:42:01.952Z,4.30
2019-02-12T19:44:30.147Z,4.30
2019-02-12T19:46:58.357Z,4.30
2019-02-12T19:49:26.549Z,4.30
2019-02-12T19:51:54.741Z,4.20
2019-02-12T19:54:22.943Z,4.20
2019-02-12T19:56:58.164Z,4.20
2019-02-12T19:59:21.064Z,4.20
2019-02-12T20:01:49.269Z,4.30
2019-02-12T20:04:17.475Z,4.30
2019-02-12T20:06:45.670Z,4.40
2019-02-12T20:09:15.528Z,4.30
2019-02-12T20:11:43.719Z,4.30
2019-02-12T20:14:11.920Z,4.30
2019-02-12T20:16:40.119Z,4.20
2019-02-12T20:19:08.315Z,4.10
2019-02-12T20:21:36.512Z,4.00
2019-02-12T20:24:04.719Z,4.00
2019-02-12T20:26:32.932Z,4.00
2019-02-12T20:29:01.124Z,4.00
2019-02-12T20:31:29.335Z,4.00
2019-02-12T20:33:57.537Z,3.90
2019-02-12T20:36:25.745Z,4.00
2019-02-12T20:38:53.951Z,3.90
2019-02-12T20:41:22.468Z,3.80
2019-02-12T20:43:50.689Z,3.80
2019-02-12T20:46:18.883Z,3.80
2019-02-12T20:48:47.075Z,3.70
2019-02-12T20:51:15.279Z,3.60
2019-02-12T20:53:43.492Z,3.60
2019-02-12T20:56:11.692Z,3.60
2019-02-12T20:58:39.890Z,3.60
2019-02-12T21:01:08.136Z,3.60
2019-02-12T21:03:36.372Z,3.60
2019-02-12T21:06:04.584Z,3.70
2019-02-12T21:08:33.179Z,3.70
2019-02-12T21:11:01.471Z,3.60
2019-02-12T21:13:29.673Z,3.50
2019-02-12T21:15:57.881Z,3.50
2019-02-12T21:18:26.075Z,3.50
2019-02-12T21:20:54.267Z,3.50
2019-02-12T21:23:22.479Z,3.50
2019-02-12T21:25:50.672Z,3.50
2019-02-12T21:28:18.892Z,3.50
2019-02-12T21:30:47.146Z,3.50
2019-02-12T21:33:15.347Z,3.50
2019-02-12T21:35:43.545Z,3.50
2019-02-12T21:38:13.390Z,3.40
2019-02-12T21:40:41.583Z,3.40
2019-02-12T21:43:09.788Z,3.40
2019-02-12T21:45:37.987Z,3.50
2019-02-12T21:48:06.192Z,3.50
2019-02-12T21:50:34.394Z,3.50
2019-02-12T21:53:02.603Z,3.50
2019-02-12T21:55:30.812Z,3.60
2019-02-12T21:57:59.015Z,3.60
2019-02-12T22:00:27.212Z,3.60
2019-02-12T22:02:55.399Z,3.60
2019-02-12T22:05:23.603Z,3.60
2019-02-12T22:07:51.808Z,3.70
2019-02-12T22:10:28.044Z,3.70
2019-02-12T22:12:56.255Z,3.70
2019-02-12T22:15:24.443Z,3.70
2019-02-12T22:17:52.635Z,3.60
2019-02-12T22:20:22.193Z,3.60
2019-02-12T22:22:50.381Z,3.60
2019-02-12T22:25:18.590Z,3.60
2019-02-12T22:27:46.776Z,3.50
2019-02-12T22:30:25.815Z,3.50
2019-02-12T22:32:54.026Z,3.40
2019-02-12T22:35:22.227Z,3.30
2019-02-12T22:37:50.432Z,3.30
2019-02-12T22:40:18.895Z,3.30
2019-02-12T22:42:47.103Z,3.30
2019-02-12T22:45:20.017Z,3.20
2019-02-12T22:47:48.215Z,3.20
2019-02-12T22:50:16.420Z,3.10
2019-02-12T22:52:44.623Z,3.10
2019-02-12T22:55:12.819Z,3.10
2019-02-12T22:57:48.815Z,3.10
2019-02-12T23:00:51.200Z,3.10
2019-02-12T23:03:19.650Z,3.10
2019-02-12T23:05:47.912Z,3.10
2019-02-12T23:08:16.117Z,3.00
2019-02-12T23:10:44.307Z,2.90
2019-02-12T23:13:12.519Z,2.90
2019-02-12T23:15:40.720Z,2.80
2019-02-12T23:18:08.924Z,2.70
2019-02-12T23:20:37.141Z,2.70
2019-02-12T23:23:05.340Z,2.70
2019-02-12T23:25:33.539Z,2.80
2019-02-12T23:28:01.740Z,2.90
2019-02-12T23:30:30.230Z,3.00
2019-02-12T23:32:58.439Z,3.00
2019-02-12T23:35:26.627Z,2.90
2019-02-12T23:37:55.399Z,3.00
2019-02-12T23:40:23.607Z,3.00
2019-02-12T23:42:51.803Z,3.00
2019-02-12T23:45:20.009Z,2.90
2019-02-12T23:47:48.228Z,3.00
2019-02-12T23:50:16.423Z,3.00
2019-02-12T23:52:44.620Z,3.10
2019-02-12T23:55:12.824Z,3.00
2019-02-12T23:57:41.019Z,3.00
